Historyczne dane pomiarowe

Dodano dane terminowe – wersja testowa.

Dane z okresu 1951-2019

Wersja bazy: 1.34 [2019-03-16, lista zmian], aktualizacja planowana na 2019-04-15

Dane meteo z obszaru Polski uzyskane na podstawie danych udostępnionych przez Instytut Meteorologii i Gospodarki Wodnej – Państwowy Instytut Badawczy.

 

Wybierz Datę:    

       

TemperaturaWilgotnośćWiatrCiśnienieOpadyŚniegCzas trwania zjawisk
 Stacja t tx tn tng RH VA  wxwx mslp ppp RRR   cm mm wxwxwxwxwxwxwx
1983-08-14 14.0 18.0 10.2 7.2 82.8- 2.7 2.0---- 0.0------------
1983-08-13 16.8 22.8 12.5 12.3 77.5- 6.7 3.0---- 11.0------------
1983-08-12 19.9 26.8 15.6 14.0 76.8- 2.3 1.7---- 0.1------------
1983-08-11 20.0 28.2 15.2 12.9 81.0- 4.0 1.7---- 4.2------------
1983-08-10 20.0 26.2 14.4 12.9 82.8- 4.7 0.7---- 0.0------------
1983-08-09 18.7 26.6 14.9 12.3 88.3- 5.3 2.0---- 19.9------------
1983-08-08 17.6 23.6 14.6 12.7 90.8- 4.3 1.7---- 1.4------------
1983-08-07 16.5 20.0 14.4 14.0 90.0- 6.7 1.0---- 1.8------------
1983-08-06 16.0 21.6 12.6 11.6 82.8- 6.3 1.0---- 0.3------------
1983-08-05 13.6 18.3 9.2 6.4 85.0- 7.0 0.7---- 0.5------------
1983-08-04 12.8 18.4 11.3 11.1 89.3- 8.0 4.0---- 2.5------------
1983-08-03 20.2 26.5 18.1 16.5 78.3- 6.3 2.0---- 3.5------------
1983-08-02 20.6 28.2 15.3 12.5 79.3- 3.0 1.3---- 12.8------------
1983-08-01 20.6 30.9 10.6 6.8 67.3- 0.0 2.0---- 0.0------------
1983-07-31 18.4 25.8 10.3 6.6 64.8- 0.0 1.3---- 0.0------------
1983-07-30 19.8 24.3 16.0 13.1 76.3- 5.0 2.3---- 0.0------------
1983-07-29 21.1 26.5 15.6 12.0 64.0- 2.7 2.3---- 0.6------------
1983-07-28 24.8 30.0 19.4 16.4 59.5- 3.0 3.3---- 0.0------------
1983-07-27 23.8 32.3 14.9 12.0 64.0- 0.7 1.0---- 0.0------------
1983-07-26 21.8 29.3 16.2 15.2 64.8- 1.3 1.7---- 0.0------------
1983-07-25 17.2 22.4 12.1 9.2 72.5- 5.0 1.7---- 0.0------------
1983-07-24 17.6 22.0 13.9 11.0 81.8- 7.3 1.3---- 0.1------------
1983-07-23 18.0 23.3 13.9 11.7 71.8- 5.7 2.0---- 0.0------------
1983-07-22 13.1 16.0 9.6 7.0 80.8- 8.0 2.0---- 0.7------------
1983-07-21 14.1 17.7 9.7 8.9 64.0- 5.3 4.0---- 0.0------------
1983-07-20 17.2 26.8 13.7 11.9 84.3- 4.7 2.3---- 4.4------------
1983-07-19 24.0 30.9 17.1 14.1 66.5- 0.0 1.7---- 5.9------------
1983-07-18 22.8 32.0 14.3 11.4 67.3- 0.3 0.7---- 0.0------------
1983-07-17 22.3 27.5 17.0 14.7 68.3- 3.7 1.7---- 0.1------------
1983-07-16 21.7 28.8 15.0 12.1 64.3- 1.0 1.7---- 0.0------------
1983-07-15 20.3 27.0 14.2 11.4 72.0- 2.3 2.3---- 0.0------------
1983-07-14 17.8 20.6 15.8 15.1 93.0- 8.0 2.3---- 19.0------------
1983-07-13 20.2 27.1 17.0 14.9 78.8- 5.3 2.3---- 8.4------------
1983-07-12 19.0 23.7 16.4 15.3 85.3- 6.3 2.7---- 7.4------------
1983-07-11 21.4 28.4 16.2 13.2 63.8- 7.0 2.3---- 1.4------------
1983-07-10 23.0 30.1 15.2 11.2 59.3- 1.7 1.3---- 0.0------------
1983-07-09 22.4 29.3 13.8 10.1 59.3- 1.3 1.7---- 0.0------------
1983-07-08 21.6 29.5 12.7 9.3 52.3- 0.0 1.0---- 0.0------------
1983-07-07 22.7 30.5 14.3 11.4 67.0- 0.0 0.7---- 0.0------------
1983-07-06 22.0 29.7 13.6 10.3 65.3- 0.0 0.3---- 0.0------------
1983-07-05 20.9 27.7 13.9 10.5 68.5- 3.3 1.7---- 0.0------------
1983-07-04 20.1 27.2 12.0 9.1 67.5- 2.3 1.0---- 0.0------------
1983-07-03 19.2 25.2 12.4 9.2 70.0- 2.0 0.7---- 0.0------------
1983-07-02 19.1 24.1 15.4 13.3 74.3- 7.0 3.0---- 0.0------------
1983-07-01 20.3 27.0 12.2 8.9 66.3- 0.7 1.0---- 0.0------------
1983-06-30 16.5 24.6 7.4 4.8 72.8- 1.3 1.0---- 0.0------------
1983-06-29 15.1 20.5 10.2 7.8 63.5- 1.3 2.0---- 0.0------------
1983-06-28 16.6 20.0 15.6 14.4 89.3- 7.7 2.0---- 1.4------------
1983-06-27 20.5 28.2 15.1 12.0 74.8- 5.0 3.0---- 12.0------------
1983-06-26 21.5 26.0 16.5 15.3 72.3- 4.7 1.7---- 0.0------------
1983-06-25 21.5 28.2 12.2 8.3 57.0- 0.0 2.7---- 0.3------------
1983-06-24 18.3 26.8 8.2 5.3 59.8- 0.0 2.0---- 0.0------------
1983-06-23 15.3 22.8 6.2 4.5 65.0- 0.0 1.3---- 0.0------------
1983-06-22 16.7 22.8 12.3 10.1 58.3- 0.0 2.0---- 0.0------------
1983-06-21 19.6 27.0 14.2 11.9 74.3- 1.0 1.0---- 0.0------------
1983-06-20 17.9 22.0 16.2 14.2 88.3- 7.0 0.7---- 1.2------------
1983-06-19 15.2 20.0 12.2 11.9 90.8- 8.0 2.3---- 0.6------------
1983-06-18 12.4 14.8 10.3 10.2 87.0- 8.0 2.0---- 29.4------------
1983-06-17 13.2 15.8 11.1 10.0 72.5- 8.0 3.0---- 5.4------------
1983-06-16 12.2 15.5 9.5 9.6 84.3- 8.0 1.7---- 0.8------------
565.1 ms

 

Źródłem pochodzenia danych jest Instytut Meteorologii i Gospodarki Wodnej – Państwowy Instytut Badawczy. Dane Instytutu Meteorologii i Gospodarki Wodnej – Państwowego Instytutu Badawczego zostały przetworzone.

Dane źródłowe można odnaleźć na stronie https://dane.imgw.pl